createdAt,value
2023-07-18T00:00:29.137Z,0.00
2023-07-18T00:01:29.000Z,0.00
2023-07-18T00:02:28.985Z,0.00
2023-07-18T00:03:29.068Z,0.00
2023-07-18T00:04:28.972Z,0.00
2023-07-18T00:05:28.959Z,0.00
2023-07-18T00:06:28.959Z,0.00
2023-07-18T00:07:28.957Z,0.00
2023-07-18T00:08:28.954Z,0.00
2023-07-18T00:09:28.925Z,0.00
2023-07-18T00:10:28.983Z,0.00
2023-07-18T00:11:28.973Z,0.00
2023-07-18T00:12:28.929Z,0.00
2023-07-18T00:13:28.951Z,0.00
2023-07-18T00:14:28.918Z,0.00
2023-07-18T00:15:28.881Z,0.00
2023-07-18T00:16:28.950Z,0.00
2023-07-18T00:17:28.907Z,0.00
2023-07-18T00:18:28.924Z,0.00
2023-07-18T00:19:28.869Z,0.00
2023-07-18T00:20:28.882Z,0.00
2023-07-18T00:21:28.859Z,0.00
2023-07-18T00:22:28.976Z,0.00
2023-07-18T00:23:28.846Z,0.00
2023-07-18T00:24:28.839Z,0.00
2023-07-18T00:25:28.850Z,0.00
2023-07-18T00:26:28.869Z,0.00
2023-07-18T00:27:28.859Z,0.00
2023-07-18T00:28:28.820Z,0.00
2023-07-18T00:29:28.808Z,0.00
2023-07-18T00:30:28.824Z,0.00
2023-07-18T00:31:28.885Z,0.00
2023-07-18T00:32:28.827Z,0.00
2023-07-18T00:33:28.778Z,0.00
2023-07-18T00:34:28.776Z,0.00
2023-07-18T00:35:28.766Z,0.00
2023-07-18T00:36:28.770Z,0.00
2023-07-18T00:37:28.755Z,0.00
2023-07-18T00:38:28.759Z,0.00
2023-07-18T00:39:28.743Z,0.00
2023-07-18T00:40:28.763Z,0.00
2023-07-18T00:41:28.731Z,0.00
2023-07-18T00:42:28.758Z,0.00
2023-07-18T00:43:28.749Z,0.00
2023-07-18T00:44:28.713Z,0.00
2023-07-18T00:45:28.690Z,0.00
2023-07-18T00:46:28.734Z,0.00
2023-07-18T00:47:28.745Z,0.00
2023-07-18T00:48:28.709Z,0.00
2023-07-18T00:49:28.676Z,0.00
2023-07-18T00:50:28.665Z,0.00
2023-07-18T00:51:28.663Z,0.00
2023-07-18T00:52:28.666Z,0.00
2023-07-18T00:53:28.647Z,0.00
2023-07-18T00:54:28.663Z,0.00
2023-07-18T00:55:28.648Z,0.00
2023-07-18T00:56:28.638Z,0.00
2023-07-18T00:57:28.625Z,0.00
2023-07-18T00:58:28.647Z,0.00
2023-07-18T00:59:28.639Z,0.00
2023-07-18T01:00:28.620Z,0.00
2023-07-18T01:01:28.656Z,0.00
2023-07-18T01:02:28.703Z,0.00
2023-07-18T01:03:28.655Z,0.00
2023-07-18T01:04:28.580Z,0.00
2023-07-18T01:05:28.574Z,0.00
2023-07-18T01:06:28.566Z,0.00
2023-07-18T01:07:28.555Z,0.00
2023-07-18T01:08:28.540Z,0.00
2023-07-18T01:09:28.543Z,0.00
2023-07-18T01:10:28.544Z,0.00
2023-07-18T01:11:28.521Z,0.00
2023-07-18T01:12:28.519Z,0.00
2023-07-18T01:13:28.523Z,0.00
2023-07-18T01:14:28.521Z,0.00
2023-07-18T01:15:28.575Z,0.00
2023-07-18T01:16:28.509Z,0.00
2023-07-18T01:17:28.537Z,0.00
2023-07-18T01:18:28.489Z,0.00
2023-07-18T01:19:28.463Z,0.00
2023-07-18T01:20:28.748Z,0.00
2023-07-18T01:21:28.658Z,0.00
2023-07-18T01:22:28.499Z,0.00
2023-07-18T01:23:28.458Z,0.00
2023-07-18T01:24:28.460Z,0.00
2023-07-18T01:25:28.459Z,0.00
2023-07-18T01:26:28.418Z,0.00
2023-07-18T01:27:28.416Z,0.00
2023-07-18T01:28:28.417Z,0.00
2023-07-18T01:29:28.416Z,0.00
2023-07-18T01:30:28.403Z,0.00
2023-07-18T01:31:28.446Z,0.00
2023-07-18T01:32:28.419Z,0.00
2023-07-18T01:33:28.379Z,0.00
2023-07-18T01:34:28.384Z,0.00
2023-07-18T01:35:28.360Z,0.00
2023-07-18T01:36:28.350Z,0.00
2023-07-18T01:37:28.390Z,0.00
2023-07-18T01:38:28.358Z,0.00
2023-07-18T01:39:28.317Z,0.00
2023-07-18T01:40:28.336Z,0.00
2023-07-18T01:41:28.546Z,0.00
2023-07-18T01:42:28.316Z,0.00
2023-07-18T01:43:28.318Z,0.00
2023-07-18T01:44:28.366Z,0.00
2023-07-18T01:45:28.286Z,0.00
2023-07-18T01:46:30.049Z,0.00
2023-07-18T01:47:28.419Z,0.00
2023-07-18T01:48:28.273Z,0.00
2023-07-18T01:49:28.266Z,0.00
2023-07-18T01:50:28.266Z,0.00
2023-07-18T01:51:28.251Z,0.00
2023-07-18T01:52:28.227Z,0.00
2023-07-18T01:53:28.271Z,0.00
2023-07-18T01:54:28.229Z,0.00
2023-07-18T01:55:28.286Z,0.00
2023-07-18T01:56:28.199Z,0.00
2023-07-18T01:57:28.222Z,0.00
2023-07-18T01:58:28.195Z,0.00
2023-07-18T01:59:28.233Z,0.00
2023-07-18T02:00:28.172Z,0.00
2023-07-18T02:01:28.263Z,0.00
2023-07-18T02:02:28.251Z,0.00
2023-07-18T02:03:28.239Z,0.00
2023-07-18T02:04:28.176Z,0.00
2023-07-18T02:05:28.206Z,0.00
2023-07-18T02:06:28.139Z,0.00
2023-07-18T02:07:28.146Z,0.00
2023-07-18T02:08:28.121Z,0.00
2023-07-18T02:09:28.122Z,0.00
2023-07-18T02:10:28.109Z,0.00
2023-07-18T02:11:28.108Z,0.00
2023-07-18T02:12:28.103Z,0.00
2023-07-18T02:13:28.122Z,0.00
2023-07-18T02:14:28.076Z,0.00
2023-07-18T02:15:28.100Z,0.00
2023-07-18T02:16:28.124Z,0.00
2023-07-18T02:17:28.115Z,0.00
2023-07-18T02:18:28.055Z,0.00
2023-07-18T02:19:28.077Z,0.00
2023-07-18T02:20:28.039Z,0.00
2023-07-18T02:21:28.060Z,0.00
2023-07-18T02:22:28.071Z,0.00
2023-07-18T02:23:28.022Z,0.00
2023-07-18T02:24:28.021Z,0.00
2023-07-18T02:25:27.996Z,0.00
2023-07-18T02:26:28.018Z,0.00
2023-07-18T02:27:28.028Z,0.00
2023-07-18T02:28:28.005Z,0.00
2023-07-18T02:29:27.991Z,0.00
2023-07-18T02:30:27.980Z,0.00
2023-07-18T02:31:27.981Z,0.00
2023-07-18T02:32:27.956Z,0.00
2023-07-18T02:33:27.979Z,0.00
2023-07-18T02:34:27.962Z,0.00
2023-07-18T02:35:27.971Z,0.00
2023-07-18T02:36:27.967Z,0.00
2023-07-18T02:37:27.917Z,0.00
2023-07-18T02:38:27.945Z,0.00
2023-07-18T02:39:27.934Z,0.00
2023-07-18T02:40:27.900Z,0.00
2023-07-18T02:41:27.895Z,0.00
2023-07-18T02:42:27.888Z,0.00
2023-07-18T02:43:27.913Z,0.00
2023-07-18T02:44:27.916Z,0.00
2023-07-18T02:45:27.868Z,0.00
2023-07-18T02:46:27.868Z,0.00
2023-07-18T02:47:27.875Z,0.00
2023-07-18T02:48:27.887Z,0.00
2023-07-18T02:49:27.876Z,0.00
2023-07-18T02:50:27.857Z,0.00
2023-07-18T02:51:27.838Z,0.00
2023-07-18T02:52:27.841Z,0.00
2023-07-18T02:53:27.819Z,0.00
2023-07-18T02:54:27.795Z,0.00
2023-07-18T02:55:27.789Z,0.00
2023-07-18T02:56:27.791Z,0.00
2023-07-18T02:57:27.894Z,0.00
2023-07-18T02:58:27.761Z,0.00
2023-07-18T02:59:27.785Z,0.00
2023-07-18T03:00:27.777Z,0.00
2023-07-18T03:01:27.801Z,0.00
2023-07-18T03:02:27.753Z,0.00
2023-07-18T03:03:27.822Z,0.00
2023-07-18T03:04:27.750Z,0.00
2023-07-18T03:05:27.725Z,0.00
2023-07-18T03:06:27.768Z,0.00
2023-07-18T03:07:27.796Z,0.00
2023-07-18T03:08:27.710Z,0.00
2023-07-18T03:09:27.699Z,0.00
2023-07-18T03:10:27.693Z,0.00
2023-07-18T03:11:27.701Z,0.00
2023-07-18T03:12:27.664Z,0.00
2023-07-18T03:13:27.654Z,0.00
2023-07-18T03:14:27.644Z,0.00
2023-07-18T03:15:27.640Z,0.00
2023-07-18T03:16:27.646Z,0.00
2023-07-18T03:17:27.699Z,0.00
2023-07-18T03:18:27.636Z,0.00
2023-07-18T03:19:27.636Z,0.00
2023-07-18T03:20:27.664Z,0.00
2023-07-18T03:21:27.615Z,0.00
2023-07-18T03:22:27.628Z,0.00
2023-07-18T03:23:27.681Z,0.00
2023-07-18T03:24:27.588Z,0.00
2023-07-18T03:25:27.558Z,0.00
2023-07-18T03:26:27.569Z,5.63
2023-07-18T03:27:27.562Z,5.63
2023-07-18T03:28:27.538Z,5.63
2023-07-18T03:29:27.565Z,5.63
2023-07-18T03:30:27.517Z,11.25
2023-07-18T03:31:27.530Z,22.50
2023-07-18T03:32:27.562Z,28.13
2023-07-18T03:33:27.514Z,22.50
2023-07-18T03:34:27.499Z,22.50
2023-07-18T03:35:27.494Z,45.00
2023-07-18T03:36:27.509Z,39.38
2023-07-18T03:37:27.481Z,39.38
2023-07-18T03:38:27.491Z,22.50
2023-07-18T03:39:27.481Z,16.88
2023-07-18T03:40:27.458Z,16.88
2023-07-18T03:41:27.440Z,11.25
2023-07-18T03:42:27.445Z,11.25
2023-07-18T03:43:27.427Z,11.25
2023-07-18T03:44:27.429Z,11.25
2023-07-18T03:45:27.425Z,11.25
2023-07-18T03:46:27.454Z,16.88
2023-07-18T03:47:27.500Z,16.88
2023-07-18T03:48:27.454Z,22.50
2023-07-18T03:49:27.406Z,22.50
2023-07-18T03:50:27.367Z,28.13
2023-07-18T03:51:28.988Z,33.75
2023-07-18T03:52:27.384Z,28.13
2023-07-18T03:53:27.377Z,28.13
2023-07-18T03:54:27.357Z,39.38
2023-07-18T03:55:27.374Z,50.63
2023-07-18T03:56:27.366Z,28.13
2023-07-18T03:57:27.338Z,16.88
2023-07-18T03:58:27.357Z,16.88
2023-07-18T03:59:27.306Z,16.88
2023-07-18T04:00:27.307Z,16.88
2023-07-18T04:01:27.521Z,16.88
2023-07-18T04:02:27.301Z,16.88
2023-07-18T04:03:27.338Z,16.88
2023-07-18T04:04:27.490Z,22.50
2023-07-18T04:05:27.275Z,28.13
2023-07-18T04:06:27.268Z,28.13
2023-07-18T04:07:27.269Z,33.75
2023-07-18T04:08:27.249Z,45.00
2023-07-18T04:09:27.282Z,45.00
2023-07-18T04:10:27.257Z,45.00
2023-07-18T04:11:27.247Z,45.00
2023-07-18T04:12:27.225Z,45.00
2023-07-18T04:13:27.218Z,45.00
2023-07-18T04:14:27.237Z,45.00
2023-07-18T04:15:27.205Z,45.00
2023-07-18T04:16:27.617Z,45.00
2023-07-18T04:17:27.235Z,50.63
2023-07-18T04:18:27.203Z,50.63
2023-07-18T04:19:27.224Z,50.63
2023-07-18T04:20:27.213Z,50.63
2023-07-18T04:21:27.155Z,56.25
2023-07-18T04:22:27.195Z,56.25
2023-07-18T04:23:27.158Z,56.25
2023-07-18T04:24:27.153Z,56.25
2023-07-18T04:25:27.134Z,56.25
2023-07-18T04:26:27.122Z,61.88
2023-07-18T04:27:27.136Z,61.88
2023-07-18T04:28:27.142Z,61.88
2023-07-18T04:29:27.109Z,61.88
2023-07-18T04:30:27.090Z,61.88
2023-07-18T04:31:27.337Z,67.50
2023-07-18T04:32:27.140Z,67.50
2023-07-18T04:33:27.096Z,67.50
2023-07-18T04:34:27.086Z,67.50
2023-07-18T04:35:27.266Z,67.50
2023-07-18T04:36:27.275Z,73.13
2023-07-18T04:37:27.083Z,73.13
2023-07-18T04:38:27.020Z,73.13
2023-07-18T04:39:27.034Z,73.13
2023-07-18T04:40:27.045Z,73.13
2023-07-18T04:41:34.961Z,78.75
2023-07-18T04:42:26.993Z,78.75
2023-07-18T04:43:27.038Z,78.75
2023-07-18T04:44:26.983Z,78.75
2023-07-18T04:45:26.988Z,78.75
2023-07-18T04:46:27.056Z,78.75
2023-07-18T04:47:27.166Z,84.38
2023-07-18T04:48:26.950Z,84.38
2023-07-18T04:49:26.955Z,84.38
2023-07-18T04:50:29.976Z,84.38
2023-07-18T04:51:26.941Z,84.38
2023-07-18T04:52:26.968Z,90.00
2023-07-18T04:53:26.971Z,90.00
2023-07-18T04:54:27.136Z,90.00
2023-07-18T04:55:26.914Z,90.00
2023-07-18T04:56:26.897Z,90.00
2023-07-18T04:57:26.896Z,90.00
2023-07-18T04:58:26.896Z,95.63
2023-07-18T04:59:26.914Z,95.63
2023-07-18T05:00:26.882Z,95.63
2023-07-18T05:01:27.361Z,95.63
2023-07-18T05:02:27.075Z,101.25
2023-07-18T05:03:26.984Z,101.25
2023-07-18T05:04:26.869Z,101.25
2023-07-18T05:05:26.840Z,101.25
2023-07-18T05:06:26.874Z,101.25
2023-07-18T05:07:26.844Z,106.88
2023-07-18T05:08:26.815Z,112.50
2023-07-18T05:09:26.808Z,112.50
2023-07-18T05:10:27.065Z,118.13
2023-07-18T05:11:26.807Z,112.50
2023-07-18T05:12:26.790Z,112.50
2023-07-18T05:13:26.794Z,112.50
2023-07-18T05:14:26.806Z,112.50
2023-07-18T05:15:26.800Z,106.88
2023-07-18T05:16:26.858Z,106.88
2023-07-18T05:17:26.792Z,106.88
2023-07-18T05:18:26.755Z,106.88
2023-07-18T05:19:26.751Z,106.88
2023-07-18T05:20:28.972Z,106.88
2023-07-18T05:21:26.767Z,106.88
2023-07-18T05:22:26.821Z,106.88
2023-07-18T05:23:26.747Z,101.25
2023-07-18T05:24:26.727Z,95.63
2023-07-18T05:25:26.727Z,90.00
2023-07-18T05:26:26.701Z,84.38
2023-07-18T05:27:26.698Z,95.63
2023-07-18T05:28:26.706Z,106.88
2023-07-18T05:29:26.690Z,106.88
2023-07-18T05:30:26.686Z,112.50
2023-07-18T05:31:26.762Z,112.50
2023-07-18T05:32:26.663Z,112.50
2023-07-18T05:33:26.684Z,112.50
2023-07-18T05:34:27.939Z,112.50
2023-07-18T05:35:26.655Z,112.50
2023-07-18T05:36:26.679Z,112.50
2023-07-18T05:37:26.633Z,118.13
2023-07-18T05:38:26.646Z,118.13
2023-07-18T05:39:26.611Z,118.13
2023-07-18T05:40:26.609Z,118.13
2023-07-18T05:41:26.621Z,118.13
2023-07-18T05:42:26.609Z,118.13
2023-07-18T05:43:26.608Z,118.13
2023-07-18T05:44:26.603Z,118.13
2023-07-18T05:45:26.591Z,118.13
2023-07-18T05:46:26.634Z,118.13
2023-07-18T05:47:26.734Z,123.75
2023-07-18T05:48:26.640Z,123.75
2023-07-18T05:49:26.596Z,123.75
2023-07-18T05:50:26.561Z,123.75
2023-07-18T05:51:26.608Z,123.75
2023-07-18T05:52:26.594Z,123.75
2023-07-18T05:53:26.589Z,123.75
2023-07-18T05:54:26.650Z,123.75
2023-07-18T05:55:26.546Z,123.75
2023-07-18T05:56:26.539Z,123.75
2023-07-18T05:57:26.533Z,123.75
2023-07-18T05:58:26.513Z,123.75
2023-07-18T05:59:26.529Z,123.75
2023-07-18T06:00:26.480Z,123.75
2023-07-18T06:01:26.569Z,123.75
2023-07-18T06:02:26.517Z,123.75
2023-07-18T06:03:26.623Z,123.75
2023-07-18T06:04:26.507Z,123.75
2023-07-18T06:05:26.803Z,123.75
2023-07-18T06:06:26.461Z,123.75
2023-07-18T06:07:26.486Z,123.75
2023-07-18T06:08:26.471Z,129.38
2023-07-18T06:09:26.442Z,129.38
2023-07-18T06:10:26.445Z,129.38
2023-07-18T06:11:26.435Z,129.38
2023-07-18T06:12:26.428Z,129.38
2023-07-18T06:13:26.459Z,129.38
2023-07-18T06:14:26.437Z,129.38
2023-07-18T06:15:26.414Z,129.38
2023-07-18T06:16:26.517Z,135.00
2023-07-18T06:17:26.434Z,129.38
2023-07-18T06:18:26.387Z,129.38
2023-07-18T06:19:26.403Z,129.38
2023-07-18T06:20:26.428Z,135.00
2023-07-18T06:21:26.378Z,135.00
2023-07-18T06:22:26.468Z,135.00
2023-07-18T06:23:26.352Z,135.00
2023-07-18T06:24:26.373Z,135.00
2023-07-18T06:25:26.359Z,135.00
2023-07-18T06:26:26.353Z,135.00
2023-07-18T06:27:26.362Z,135.00
2023-07-18T06:28:26.355Z,135.00
2023-07-18T06:29:26.339Z,135.00
2023-07-18T06:30:26.326Z,135.00
2023-07-18T06:31:26.367Z,140.63
2023-07-18T06:32:26.356Z,140.63
2023-07-18T06:33:26.319Z,140.63
2023-07-18T06:34:26.343Z,140.63
2023-07-18T06:35:26.471Z,140.63
2023-07-18T06:36:26.386Z,140.63
2023-07-18T06:37:26.487Z,140.63
2023-07-18T06:38:26.286Z,140.63
2023-07-18T06:39:26.273Z,140.63
2023-07-18T06:40:26.316Z,140.63
2023-07-18T06:41:26.288Z,146.25
2023-07-18T06:42:26.275Z,146.25
2023-07-18T06:43:26.280Z,146.25
2023-07-18T06:44:26.270Z,146.25
2023-07-18T06:45:26.248Z,146.25
2023-07-18T06:46:26.325Z,146.25
2023-07-18T06:47:26.266Z,146.25
2023-07-18T06:48:26.239Z,146.25
2023-07-18T06:49:26.429Z,151.88
2023-07-18T06:50:26.280Z,151.88
2023-07-18T06:51:26.347Z,151.88
2023-07-18T06:52:26.269Z,157.50
2023-07-18T06:53:26.419Z,157.50
2023-07-18T06:54:26.215Z,151.88
2023-07-18T06:55:26.215Z,151.88
2023-07-18T06:56:26.214Z,151.88
2023-07-18T06:57:26.203Z,151.88
2023-07-18T06:58:26.189Z,157.50
2023-07-18T06:59:26.222Z,157.50
2023-07-18T07:00:26.229Z,157.50
2023-07-18T07:01:26.191Z,157.50
2023-07-18T07:02:26.297Z,157.50
2023-07-18T07:03:27.838Z,157.50
2023-07-18T07:04:26.197Z,157.50
2023-07-18T07:05:26.168Z,157.50
2023-07-18T07:06:26.142Z,157.50
2023-07-18T07:07:26.205Z,163.13
2023-07-18T07:08:26.140Z,163.13
2023-07-18T07:09:26.149Z,163.13
2023-07-18T07:10:26.205Z,163.13
2023-07-18T07:11:26.161Z,163.13
2023-07-18T07:12:35.428Z,163.13
2023-07-18T07:13:26.158Z,163.13
2023-07-18T07:14:26.130Z,163.13
2023-07-18T07:15:26.113Z,163.13
2023-07-18T07:16:26.162Z,163.13
2023-07-18T07:17:26.174Z,163.13
2023-07-18T07:18:26.107Z,163.13
2023-07-18T07:19:26.103Z,163.13
2023-07-18T07:20:26.161Z,163.13
2023-07-18T07:21:26.087Z,163.13
2023-07-18T07:22:26.142Z,168.75
2023-07-18T07:23:26.151Z,168.75
2023-07-18T07:24:26.062Z,168.75
2023-07-18T07:25:26.071Z,168.75
2023-07-18T07:26:26.086Z,168.75
2023-07-18T07:27:26.060Z,168.75
2023-07-18T07:28:26.071Z,168.75
2023-07-18T07:29:26.087Z,168.75
2023-07-18T07:30:26.046Z,168.75
2023-07-18T07:31:26.195Z,168.75
2023-07-18T07:32:26.096Z,168.75
2023-07-18T07:33:27.135Z,168.75
2023-07-18T07:34:26.044Z,168.75
2023-07-18T07:35:26.039Z,168.75
2023-07-18T07:36:26.046Z,168.75
2023-07-18T07:37:26.031Z,168.75
2023-07-18T07:38:26.031Z,168.75
2023-07-18T07:39:26.051Z,168.75
2023-07-18T07:40:26.041Z,168.75
2023-07-18T07:41:26.041Z,168.75
2023-07-18T07:42:26.017Z,168.75
2023-07-18T07:43:26.017Z,168.75
2023-07-18T07:44:26.009Z,168.75
2023-07-18T07:45:25.986Z,168.75
2023-07-18T07:46:26.023Z,168.75
2023-07-18T07:47:26.023Z,168.75
2023-07-18T07:48:25.975Z,168.75
2023-07-18T07:49:25.973Z,168.75
2023-07-18T07:50:25.988Z,168.75
2023-07-18T07:51:26.004Z,168.75
2023-07-18T07:52:25.990Z,168.75
2023-07-18T07:53:25.999Z,168.75
2023-07-18T07:54:25.958Z,168.75
2023-07-18T07:55:26.011Z,168.75
2023-07-18T07:56:25.981Z,168.75
2023-07-18T07:57:25.988Z,168.75
2023-07-18T07:58:26.005Z,168.75
2023-07-18T07:59:25.956Z,168.75
2023-07-18T08:00:25.940Z,168.75
2023-07-18T08:01:25.946Z,168.75
2023-07-18T08:02:26.031Z,168.75
2023-07-18T08:03:25.950Z,168.75
2023-07-18T08:04:26.028Z,168.75
2023-07-18T08:05:25.940Z,168.75
2023-07-18T08:06:25.950Z,168.75
2023-07-18T08:07:25.914Z,168.75
2023-07-18T08:08:25.896Z,168.75
2023-07-18T08:09:25.914Z,168.75
2023-07-18T08:10:25.966Z,168.75
2023-07-18T08:11:25.940Z,168.75
2023-07-18T08:12:25.896Z,168.75
2023-07-18T08:13:26.440Z,168.75
2023-07-18T08:14:25.878Z,174.38
2023-07-18T08:15:25.872Z,174.38
2023-07-18T08:16:25.876Z,174.38
2023-07-18T08:17:25.972Z,174.38
2023-07-18T08:18:26.092Z,174.38
2023-07-18T08:19:25.879Z,174.38
2023-07-18T08:20:25.875Z,174.38
2023-07-18T08:21:25.851Z,174.38
2023-07-18T08:22:25.943Z,174.38
2023-07-18T08:23:25.861Z,174.38
2023-07-18T08:24:25.852Z,174.38
2023-07-18T08:25:25.836Z,174.38
2023-07-18T08:26:25.852Z,174.38
2023-07-18T08:27:25.889Z,174.38
2023-07-18T08:28:25.826Z,174.38
2023-07-18T08:29:25.902Z,174.38
2023-07-18T08:30:25.838Z,174.38
2023-07-18T08:31:25.855Z,174.38
2023-07-18T08:32:28.095Z,174.38
2023-07-18T08:33:25.823Z,180.00
2023-07-18T08:34:25.801Z,174.38
2023-07-18T08:35:25.803Z,180.00
2023-07-18T08:36:25.805Z,180.00
2023-07-18T08:37:25.795Z,180.00
2023-07-18T08:38:25.803Z,180.00
2023-07-18T08:39:25.809Z,180.00
2023-07-18T08:40:26.008Z,180.00
2023-07-18T08:41:25.835Z,180.00
2023-07-18T08:42:25.816Z,180.00
2023-07-18T08:43:25.828Z,180.00
2023-07-18T08:44:25.813Z,180.00
2023-07-18T08:45:25.801Z,180.00
2023-07-18T08:46:25.778Z,180.00
2023-07-18T08:47:25.780Z,180.00
2023-07-18T08:48:25.868Z,180.00
2023-07-18T08:49:25.794Z,180.00
2023-07-18T08:50:25.813Z,180.00
2023-07-18T08:51:25.973Z,180.00
2023-07-18T08:52:25.843Z,180.00
2023-07-18T08:53:25.752Z,180.00
2023-07-18T08:54:25.764Z,180.00
2023-07-18T08:55:25.781Z,180.00
2023-07-18T08:56:25.768Z,185.63
2023-07-18T08:57:25.760Z,185.63
2023-07-18T08:58:25.767Z,180.00
2023-07-18T08:59:25.778Z,180.00
2023-07-18T09:00:25.932Z,180.00
2023-07-18T09:01:25.742Z,180.00
2023-07-18T09:02:25.768Z,180.00
2023-07-18T09:03:25.793Z,180.00
2023-07-18T09:04:25.729Z,180.00
2023-07-18T09:05:25.757Z,180.00
2023-07-18T09:06:25.709Z,180.00
2023-07-18T09:07:25.719Z,180.00
2023-07-18T09:08:25.706Z,180.00
2023-07-18T09:09:25.702Z,185.63
2023-07-18T09:10:25.708Z,185.63
2023-07-18T09:11:25.766Z,180.00
2023-07-18T09:12:25.690Z,180.00
2023-07-18T09:13:25.699Z,163.13
2023-07-18T09:14:25.723Z,180.00
2023-07-18T09:15:25.690Z,185.63
2023-07-18T09:16:25.755Z,180.00
2023-07-18T09:17:25.943Z,163.13
2023-07-18T09:18:25.670Z,185.63
2023-07-18T09:19:25.671Z,180.00
2023-07-18T09:20:25.666Z,180.00
2023-07-18T09:21:25.680Z,180.00
2023-07-18T09:22:25.794Z,180.00
2023-07-18T09:23:25.680Z,180.00
2023-07-18T09:24:25.659Z,180.00
2023-07-18T09:25:25.648Z,180.00
2023-07-18T09:26:25.663Z,180.00
2023-07-18T09:27:25.852Z,180.00
2023-07-18T09:28:25.643Z,180.00
2023-07-18T09:29:25.634Z,180.00
2023-07-18T09:30:25.676Z,180.00
2023-07-18T09:31:25.781Z,185.63
2023-07-18T09:32:25.669Z,180.00
2023-07-18T09:33:25.683Z,180.00
2023-07-18T09:34:25.641Z,180.00
2023-07-18T09:35:25.640Z,180.00
2023-07-18T09:36:25.618Z,180.00
2023-07-18T09:37:25.646Z,180.00
2023-07-18T09:38:25.616Z,180.00
2023-07-18T09:39:25.618Z,174.38
2023-07-18T09:40:25.617Z,180.00
2023-07-18T09:41:25.923Z,180.00
2023-07-18T09:42:25.645Z,180.00
2023-07-18T09:43:25.625Z,185.63
2023-07-18T09:44:32.440Z,174.38
2023-07-18T09:45:25.598Z,174.38
2023-07-18T09:46:25.649Z,174.38
2023-07-18T09:47:25.620Z,174.38
2023-07-18T09:48:25.602Z,174.38
2023-07-18T09:50:25.576Z,168.75
2023-07-18T09:51:25.588Z,174.38
2023-07-18T09:52:25.576Z,174.38
2023-07-18T09:53:25.565Z,174.38
2023-07-18T09:54:25.581Z,174.38
2023-07-18T09:55:25.596Z,174.38
2023-07-18T09:56:25.569Z,174.38
2023-07-18T09:57:25.584Z,174.38
2023-07-18T09:58:25.595Z,168.75
2023-07-18T09:59:25.568Z,168.75
2023-07-18T10:00:25.584Z,180.00
2023-07-18T10:01:25.625Z,168.75
2023-07-18T10:02:25.572Z,168.75
2023-07-18T10:03:25.690Z,168.75
2023-07-18T10:04:25.559Z,168.75
2023-07-18T10:05:25.552Z,168.75
2023-07-18T10:06:25.548Z,168.75
2023-07-18T10:07:25.556Z,168.75
2023-07-18T10:08:25.553Z,168.75
2023-07-18T10:09:25.549Z,168.75
2023-07-18T10:10:25.591Z,168.75
2023-07-18T10:11:25.757Z,163.13
2023-07-18T10:12:25.555Z,163.13
2023-07-18T10:13:25.537Z,163.13
2023-07-18T10:14:25.554Z,168.75
2023-07-18T10:15:25.527Z,168.75
2023-07-18T10:16:25.577Z,163.13
2023-07-18T10:17:25.581Z,163.13
2023-07-18T10:18:25.615Z,163.13
2023-07-18T10:19:25.772Z,163.13
2023-07-18T10:20:25.540Z,163.13
2023-07-18T10:21:25.540Z,163.13
2023-07-18T10:22:25.538Z,163.13
2023-07-18T10:23:25.530Z,163.13
2023-07-18T10:24:25.537Z,157.50
2023-07-18T10:25:25.528Z,157.50
2023-07-18T10:26:25.528Z,163.13
2023-07-18T10:27:25.530Z,163.13
2023-07-18T10:28:25.527Z,163.13
2023-07-18T10:29:25.529Z,163.13
2023-07-18T10:30:25.512Z,163.13
2023-07-18T10:31:25.522Z,163.13
2023-07-18T10:32:25.554Z,157.50
2023-07-18T10:33:25.719Z,157.50
2023-07-18T10:34:25.516Z,157.50
2023-07-18T10:35:25.523Z,157.50
2023-07-18T10:36:25.522Z,157.50
2023-07-18T10:37:25.535Z,157.50
2023-07-18T10:38:25.497Z,157.50
2023-07-18T10:39:25.508Z,157.50
2023-07-18T10:40:25.502Z,157.50
2023-07-18T10:41:25.485Z,157.50
2023-07-18T10:42:25.502Z,157.50
2023-07-18T10:43:25.494Z,157.50
2023-07-18T10:44:25.499Z,157.50
2023-07-18T10:45:25.502Z,157.50
2023-07-18T10:46:25.640Z,163.13
2023-07-18T10:47:25.515Z,157.50
2023-07-18T10:48:25.521Z,168.75
2023-07-18T10:49:25.471Z,140.63
2023-07-18T10:50:25.478Z,163.13
2023-07-18T10:51:25.517Z,157.50
2023-07-18T10:52:25.468Z,163.13
2023-07-18T10:53:25.471Z,163.13
2023-07-18T10:54:25.474Z,123.75
2023-07-18T10:55:25.678Z,157.50
2023-07-18T10:56:25.462Z,151.88
2023-07-18T10:57:25.478Z,157.50
2023-07-18T10:58:25.465Z,163.13
2023-07-18T10:59:25.472Z,163.13
2023-07-18T11:00:25.469Z,157.50
2023-07-18T11:01:25.498Z,146.25
2023-07-18T11:02:25.490Z,140.63
2023-07-18T11:03:25.522Z,157.50
2023-07-18T11:04:25.604Z,157.50
2023-07-18T11:05:25.478Z,163.13
2023-07-18T11:06:25.455Z,163.13
2023-07-18T11:07:25.502Z,157.50
2023-07-18T11:08:25.482Z,163.13
2023-07-18T11:09:25.455Z,168.75
2023-07-18T11:10:25.462Z,163.13
2023-07-18T11:11:25.452Z,174.38
2023-07-18T11:12:25.465Z,174.38
2023-07-18T11:13:25.436Z,168.75
2023-07-18T11:14:25.424Z,168.75
2023-07-18T11:15:25.439Z,180.00
2023-07-18T11:16:25.474Z,123.75
2023-07-18T11:17:25.458Z,106.88
2023-07-18T11:18:25.630Z,106.88
2023-07-18T11:19:25.442Z,157.50
2023-07-18T11:20:25.450Z,157.50
2023-07-18T11:21:25.420Z,157.50
2023-07-18T11:22:25.421Z,157.50
2023-07-18T11:23:25.482Z,163.13
2023-07-18T11:24:25.411Z,163.13
2023-07-18T11:25:25.416Z,163.13
2023-07-18T11:26:25.435Z,168.75
2023-07-18T11:27:25.428Z,168.75
2023-07-18T11:28:25.453Z,163.13
2023-07-18T11:29:25.429Z,163.13
2023-07-18T11:30:25.424Z,157.50
2023-07-18T11:32:25.507Z,157.50
2023-07-18T11:33:25.444Z,157.50
2023-07-18T11:34:25.440Z,163.13
2023-07-18T11:35:25.438Z,151.88
2023-07-18T11:36:25.421Z,157.50
2023-07-18T11:37:25.402Z,163.13
2023-07-18T11:38:25.427Z,151.88
2023-07-18T11:39:25.425Z,151.88
2023-07-18T11:40:25.405Z,157.50
2023-07-18T11:41:25.401Z,163.13
2023-07-18T11:42:25.411Z,168.75
2023-07-18T11:43:25.410Z,163.13
2023-07-18T11:44:25.476Z,168.75
2023-07-18T11:45:25.395Z,151.88
2023-07-18T11:46:25.388Z,168.75
2023-07-18T11:47:25.466Z,168.75
2023-07-18T11:48:25.506Z,163.13
2023-07-18T11:49:25.421Z,157.50
2023-07-18T11:50:26.930Z,174.38
2023-07-18T11:51:25.415Z,174.38
2023-07-18T11:52:25.388Z,168.75
2023-07-18T11:53:25.440Z,157.50
2023-07-18T11:54:25.406Z,168.75
2023-07-18T11:55:25.447Z,174.38
2023-07-18T11:56:25.392Z,174.38
2023-07-18T11:57:25.415Z,180.00
2023-07-18T11:58:25.417Z,185.63
2023-07-18T11:59:25.404Z,191.25
2023-07-18T12:00:25.391Z,191.25
2023-07-18T12:01:25.476Z,185.63
2023-07-18T12:02:25.900Z,191.25
2023-07-18T12:03:25.479Z,180.00
2023-07-18T12:04:25.413Z,163.13
2023-07-18T12:05:26.295Z,151.88
2023-07-18T12:06:25.585Z,163.13
2023-07-18T12:07:25.373Z,157.50
2023-07-18T12:08:26.095Z,151.88
2023-07-18T12:09:25.389Z,151.88
2023-07-18T12:10:26.469Z,146.25
2023-07-18T12:11:25.797Z,146.25
2023-07-18T12:12:25.389Z,146.25
2023-07-18T12:13:25.389Z,146.25
2023-07-18T12:14:25.409Z,140.63
2023-07-18T12:15:25.372Z,140.63
2023-07-18T12:16:25.380Z,135.00
2023-07-18T12:17:25.416Z,129.38
2023-07-18T12:18:25.371Z,123.75
2023-07-18T12:19:25.370Z,123.75
2023-07-18T12:20:25.370Z,123.75
2023-07-18T12:21:25.374Z,123.75
2023-07-18T12:22:25.377Z,123.75
2023-07-18T12:23:25.378Z,118.13
2023-07-18T12:24:25.381Z,118.13
2023-07-18T12:25:25.369Z,123.75
2023-07-18T12:26:26.045Z,129.38
2023-07-18T12:27:25.404Z,140.63
2023-07-18T12:28:25.353Z,140.63
2023-07-18T12:29:25.442Z,146.25
2023-07-18T12:30:25.366Z,146.25
2023-07-18T12:31:25.705Z,146.25
2023-07-18T12:32:28.085Z,146.25
2023-07-18T12:33:25.422Z,151.88
2023-07-18T12:34:25.341Z,157.50
2023-07-18T12:35:25.347Z,163.13
2023-07-18T12:36:25.548Z,151.88
2023-07-18T12:37:25.351Z,151.88
2023-07-18T12:38:26.825Z,151.88
2023-07-18T12:39:25.391Z,151.88
2023-07-18T12:40:25.443Z,151.88
2023-07-18T12:41:25.342Z,163.13
2023-07-18T12:42:25.332Z,174.38
2023-07-18T12:43:25.368Z,185.63
2023-07-18T12:44:28.596Z,163.13
2023-07-18T12:45:25.798Z,151.88
2023-07-18T12:46:25.377Z,157.50